sensor_id;sensor_type;location;lat;lon;timestamp;temperature;humidity
20803;DHT22;10562;-33.856;151.182;2023-07-31T00:00:59;18.40;99.90
20803;DHT22;10562;-33.856;151.182;2023-07-31T00:03:32;18.60;99.90
20803;DHT22;10562;-33.856;151.182;2023-07-31T00:06:03;18.60;99.90
20803;DHT22;10562;-33.856;151.182;2023-07-31T00:08:33;18.70;99.90
20803;DHT22;10562;-33.856;151.182;2023-07-31T00:11:04;18.80;99.90
20803;DHT22;10562;-33.856;151.182;2023-07-31T00:13:35;19.00;99.90
20803;DHT22;10562;-33.856;151.182;2023-07-31T00:16:06;19.10;99.90
20803;DHT22;10562;-33.856;151.182;2023-07-31T00:18:39;19.10;99.90
20803;DHT22;10562;-33.856;151.182;2023-07-31T00:21:09;19.10;99.90
20803;DHT22;10562;-33.856;151.182;2023-07-31T00:23:40;19.20;99.90
20803;DHT22;10562;-33.856;151.182;2023-07-31T00:26:11;19.30;99.90
20803;DHT22;10562;-33.856;151.182;2023-07-31T00:28:42;19.40;99.90
20803;DHT22;10562;-33.856;151.182;2023-07-31T00:31:13;19.30;99.90
20803;DHT22;10562;-33.856;151.182;2023-07-31T00:33:45;19.50;99.90
20803;DHT22;10562;-33.856;151.182;2023-07-31T00:36:16;19.60;99.90
20803;DHT22;10562;-33.856;151.182;2023-07-31T00:38:47;19.70;99.90
20803;DHT22;10562;-33.856;151.182;2023-07-31T00:41:19;19.80;99.90
20803;DHT22;10562;-33.856;151.182;2023-07-31T00:43:49;19.80;99.90
20803;DHT22;10562;-33.856;151.182;2023-07-31T00:46:21;19.80;99.90
20803;DHT22;10562;-33.856;151.182;2023-07-31T00:48:53;19.90;99.90
20803;DHT22;10562;-33.856;151.182;2023-07-31T00:51:25;19.90;99.90
20803;DHT22;10562;-33.856;151.182;2023-07-31T00:53:56;19.90;99.90
20803;DHT22;10562;-33.856;151.182;2023-07-31T00:56:27;20.00;99.90
20803;DHT22;10562;-33.856;151.182;2023-07-31T00:58:58;20.00;99.90
20803;DHT22;10562;-33.856;151.182;2023-07-31T01:01:29;20.00;99.90
20803;DHT22;10562;-33.856;151.182;2023-07-31T01:04:02;20.00;99.90
20803;DHT22;10562;-33.856;151.182;2023-07-31T01:06:39;20.20;99.90
20803;DHT22;10562;-33.856;151.182;2023-07-31T01:09:19;20.30;99.90
20803;DHT22;10562;-33.856;151.182;2023-07-31T01:11:57;20.40;99.90
20803;DHT22;10562;-33.856;151.182;2023-07-31T01:14:30;20.50;99.90
20803;DHT22;10562;-33.856;151.182;2023-07-31T01:17:01;20.60;99.90
20803;DHT22;10562;-33.856;151.182;2023-07-31T01:19:34;20.70;99.90
20803;DHT22;10562;-33.856;151.182;2023-07-31T01:22:20;20.80;99.90
20803;DHT22;10562;-33.856;151.182;2023-07-31T01:25:04;20.80;99.90
20803;DHT22;10562;-33.856;151.182;2023-07-31T01:27:43;20.80;99.90
20803;DHT22;10562;-33.856;151.182;2023-07-31T01:30:17;20.80;99.90
20803;DHT22;10562;-33.856;151.182;2023-07-31T01:32:54;20.80;99.90
20803;DHT22;10562;-33.856;151.182;2023-07-31T01:35:25;21.00;99.90
20803;DHT22;10562;-33.856;151.182;2023-07-31T01:37:56;21.00;99.90
20803;DHT22;10562;-33.856;151.182;2023-07-31T01:40:27;20.90;99.90
20803;DHT22;10562;-33.856;151.182;2023-07-31T01:43:00;20.90;99.90
20803;DHT22;10562;-33.856;151.182;2023-07-31T01:45:31;21.00;99.90
20803;DHT22;10562;-33.856;151.182;2023-07-31T01:48:01;21.00;99.90
20803;DHT22;10562;-33.856;151.182;2023-07-31T01:50:32;21.20;99.90
20803;DHT22;10562;-33.856;151.182;2023-07-31T01:53:03;21.30;99.90
20803;DHT22;10562;-33.856;151.182;2023-07-31T01:55:34;21.40;99.90
20803;DHT22;10562;-33.856;151.182;2023-07-31T01:58:06;21.50;99.90
20803;DHT22;10562;-33.856;151.182;2023-07-31T02:00:37;21.50;99.90
20803;DHT22;10562;-33.856;151.182;2023-07-31T02:03:08;21.40;99.90
20803;DHT22;10562;-33.856;151.182;2023-07-31T02:05:45;21.50;99.90
20803;DHT22;10562;-33.856;151.182;2023-07-31T02:08:16;21.70;99.90
20803;DHT22;10562;-33.856;151.182;2023-07-31T02:10:47;21.80;99.90
20803;DHT22;10562;-33.856;151.182;2023-07-31T02:13:21;21.70;99.90
20803;DHT22;10562;-33.856;151.182;2023-07-31T02:15:51;21.80;99.90
20803;DHT22;10562;-33.856;151.182;2023-07-31T02:18:22;21.80;99.90
20803;DHT22;10562;-33.856;151.182;2023-07-31T02:20:53;21.90;99.90
20803;DHT22;10562;-33.856;151.182;2023-07-31T02:23:24;22.10;99.90
20803;DHT22;10562;-33.856;151.182;2023-07-31T02:25:55;22.10;99.90
20803;DHT22;10562;-33.856;151.182;2023-07-31T02:28:30;22.00;99.90
20803;DHT22;10562;-33.856;151.182;2023-07-31T02:31:00;21.90;99.90
20803;DHT22;10562;-33.856;151.182;2023-07-31T02:33:31;21.80;99.90
20803;DHT22;10562;-33.856;151.182;2023-07-31T02:36:02;21.80;99.90
20803;DHT22;10562;-33.856;151.182;2023-07-31T02:38:33;21.80;99.90
20803;DHT22;10562;-33.856;151.182;2023-07-31T02:41:03;21.90;99.90
20803;DHT22;10562;-33.856;151.182;2023-07-31T02:43:36;21.90;99.90
20803;DHT22;10562;-33.856;151.182;2023-07-31T02:46:07;21.90;99.90
20803;DHT22;10562;-33.856;151.182;2023-07-31T02:48:38;21.90;99.90
20803;DHT22;10562;-33.856;151.182;2023-07-31T02:51:08;21.90;99.90
20803;DHT22;10562;-33.856;151.182;2023-07-31T02:53:39;21.90;99.90
20803;DHT22;10562;-33.856;151.182;2023-07-31T02:56:10;22.00;99.90
20803;DHT22;10562;-33.856;151.182;2023-07-31T02:58:43;22.20;99.90
20803;DHT22;10562;-33.856;151.182;2023-07-31T03:01:13;22.10;99.90
20803;DHT22;10562;-33.856;151.182;2023-07-31T03:03:44;22.10;99.90
20803;DHT22;10562;-33.856;151.182;2023-07-31T03:06:15;22.20;99.90
20803;DHT22;10562;-33.856;151.182;2023-07-31T03:08:46;22.30;99.90
20803;DHT22;10562;-33.856;151.182;2023-07-31T03:11:17;22.20;99.90
20803;DHT22;10562;-33.856;151.182;2023-07-31T03:13:49;22.30;99.90
20803;DHT22;10562;-33.856;151.182;2023-07-31T03:16:20;22.30;99.90
20803;DHT22;10562;-33.856;151.182;2023-07-31T03:18:51;22.40;99.90
20803;DHT22;10562;-33.856;151.182;2023-07-31T03:21:23;22.50;99.90
20803;DHT22;10562;-33.856;151.182;2023-07-31T03:23:54;22.50;99.90
20803;DHT22;10562;-33.856;151.182;2023-07-31T03:26:25;22.60;99.90
20803;DHT22;10562;-33.856;151.182;2023-07-31T03:28:59;22.60;99.90
20803;DHT22;10562;-33.856;151.182;2023-07-31T03:31:30;22.60;99.90
20803;DHT22;10562;-33.856;151.182;2023-07-31T03:34:01;22.60;99.90
20803;DHT22;10562;-33.856;151.182;2023-07-31T03:36:32;22.70;99.90
20803;DHT22;10562;-33.856;151.182;2023-07-31T03:39:03;22.60;99.90
20803;DHT22;10562;-33.856;151.182;2023-07-31T03:41:34;22.50;99.90
20803;DHT22;10562;-33.856;151.182;2023-07-31T03:44:07;22.60;99.90
20803;DHT22;10562;-33.856;151.182;2023-07-31T03:46:38;22.70;99.90
20803;DHT22;10562;-33.856;151.182;2023-07-31T03:49:09;22.70;99.90
20803;DHT22;10562;-33.856;151.182;2023-07-31T03:51:39;22.80;99.90
20803;DHT22;10562;-33.856;151.182;2023-07-31T03:54:10;22.90;99.90
20803;DHT22;10562;-33.856;151.182;2023-07-31T03:56:41;22.90;99.90
20803;DHT22;10562;-33.856;151.182;2023-07-31T03:59:14;22.90;99.90
20803;DHT22;10562;-33.856;151.182;2023-07-31T04:01:45;22.90;99.90
20803;DHT22;10562;-33.856;151.182;2023-07-31T04:04:16;23.00;99.90
20803;DHT22;10562;-33.856;151.182;2023-07-31T04:06:46;23.00;99.90
20803;DHT22;10562;-33.856;151.182;2023-07-31T04:09:17;23.00;99.90
20803;DHT22;10562;-33.856;151.182;2023-07-31T04:11:48;23.00;99.90
20803;DHT22;10562;-33.856;151.182;2023-07-31T04:14:21;22.90;99.90
20803;DHT22;10562;-33.856;151.182;2023-07-31T04:16:52;22.90;99.90
20803;DHT22;10562;-33.856;151.182;2023-07-31T04:19:22;22.90;99.90
20803;DHT22;10562;-33.856;151.182;2023-07-31T04:21:54;22.90;99.90
20803;DHT22;10562;-33.856;151.182;2023-07-31T04:24:25;22.90;99.90
20803;DHT22;10562;-33.856;151.182;2023-07-31T04:26:56;23.00;99.90
20803;DHT22;10562;-33.856;151.182;2023-07-31T04:29:31;23.10;99.90
20803;DHT22;10562;-33.856;151.182;2023-07-31T04:32:02;23.00;99.90
20803;DHT22;10562;-33.856;151.182;2023-07-31T04:34:34;23.00;99.90
20803;DHT22;10562;-33.856;151.182;2023-07-31T04:37:06;23.00;99.90
20803;DHT22;10562;-33.856;151.182;2023-07-31T04:39:37;23.00;99.90
20803;DHT22;10562;-33.856;151.182;2023-07-31T04:42:09;23.00;99.90
20803;DHT22;10562;-33.856;151.182;2023-07-31T04:44:41;23.00;99.90
20803;DHT22;10562;-33.856;151.182;2023-07-31T04:47:12;23.00;99.90
20803;DHT22;10562;-33.856;151.182;2023-07-31T04:49:43;23.00;99.90
20803;DHT22;10562;-33.856;151.182;2023-07-31T04:52:14;23.00;99.90
20803;DHT22;10562;-33.856;151.182;2023-07-31T04:54:45;22.90;99.90
20803;DHT22;10562;-33.856;151.182;2023-07-31T04:57:15;23.00;99.90
20803;DHT22;10562;-33.856;151.182;2023-07-31T04:59:49;23.00;99.90
20803;DHT22;10562;-33.856;151.182;2023-07-31T05:02:20;23.00;99.90
20803;DHT22;10562;-33.856;151.182;2023-07-31T05:04:52;22.90;99.90
20803;DHT22;10562;-33.856;151.182;2023-07-31T05:07:23;23.00;99.90
20803;DHT22;10562;-33.856;151.182;2023-07-31T05:09:53;22.90;99.90
20803;DHT22;10562;-33.856;151.182;2023-07-31T05:12:24;22.90;99.90
20803;DHT22;10562;-33.856;151.182;2023-07-31T05:14:57;22.90;99.90
20803;DHT22;10562;-33.856;151.182;2023-07-31T05:17:27;22.90;99.90
20803;DHT22;10562;-33.856;151.182;2023-07-31T05:19:58;22.80;99.90
20803;DHT22;10562;-33.856;151.182;2023-07-31T05:22:29;22.80;99.90
20803;DHT22;10562;-33.856;151.182;2023-07-31T05:25:00;22.80;99.90
20803;DHT22;10562;-33.856;151.182;2023-07-31T05:27:31;22.80;99.90
20803;DHT22;10562;-33.856;151.182;2023-07-31T05:30:04;22.70;99.90
20803;DHT22;10562;-33.856;151.182;2023-07-31T05:32:35;22.60;99.90
20803;DHT22;10562;-33.856;151.182;2023-07-31T05:35:06;22.60;99.90
20803;DHT22;10562;-33.856;151.182;2023-07-31T05:37:37;22.60;99.90
20803;DHT22;10562;-33.856;151.182;2023-07-31T05:40:08;22.60;99.90
20803;DHT22;10562;-33.856;151.182;2023-07-31T05:42:40;22.60;99.90
20803;DHT22;10562;-33.856;151.182;2023-07-31T05:45:12;22.50;99.90
20803;DHT22;10562;-33.856;151.182;2023-07-31T05:47:43;22.40;99.90
20803;DHT22;10562;-33.856;151.182;2023-07-31T05:50:14;22.50;99.90
20803;DHT22;10562;-33.856;151.182;2023-07-31T05:52:45;22.40;99.90
20803;DHT22;10562;-33.856;151.182;2023-07-31T05:55:16;22.30;99.90
20803;DHT22;10562;-33.856;151.182;2023-07-31T05:57:46;22.30;99.90
20803;DHT22;10562;-33.856;151.182;2023-07-31T06:00:19;22.20;99.90
20803;DHT22;10562;-33.856;151.182;2023-07-31T06:02:50;22.20;99.90
20803;DHT22;10562;-33.856;151.182;2023-07-31T06:05:21;22.10;99.90
20803;DHT22;10562;-33.856;151.182;2023-07-31T06:07:52;21.90;99.90
20803;DHT22;10562;-33.856;151.182;2023-07-31T06:10:23;21.80;99.90
20803;DHT22;10562;-33.856;151.182;2023-07-31T06:12:54;21.80;99.90
20803;DHT22;10562;-33.856;151.182;2023-07-31T06:15:27;21.70;99.90
20803;DHT22;10562;-33.856;151.182;2023-07-31T06:17:58;21.70;99.90
20803;DHT22;10562;-33.856;151.182;2023-07-31T06:20:29;21.50;99.90
20803;DHT22;10562;-33.856;151.182;2023-07-31T06:23:00;21.40;99.90
20803;DHT22;10562;-33.856;151.182;2023-07-31T06:25:31;21.30;99.90
20803;DHT22;10562;-33.856;151.182;2023-07-31T06:28:02;21.10;99.90
20803;DHT22;10562;-33.856;151.182;2023-07-31T06:30:35;21.00;99.90
20803;DHT22;10562;-33.856;151.182;2023-07-31T06:33:06;20.80;99.90
20803;DHT22;10562;-33.856;151.182;2023-07-31T06:35:37;20.70;99.90
20803;DHT22;10562;-33.856;151.182;2023-07-31T06:38:08;20.60;99.90
20803;DHT22;10562;-33.856;151.182;2023-07-31T06:40:38;20.50;99.90
20803;DHT22;10562;-33.856;151.182;2023-07-31T06:43:09;20.40;99.90
20803;DHT22;10562;-33.856;151.182;2023-07-31T06:45:42;20.20;99.90
20803;DHT22;10562;-33.856;151.182;2023-07-31T06:48:13;20.10;99.90
20803;DHT22;10562;-33.856;151.182;2023-07-31T06:50:44;20.00;99.90
20803;DHT22;10562;-33.856;151.182;2023-07-31T06:53:15;19.80;99.90
20803;DHT22;10562;-33.856;151.182;2023-07-31T06:55:46;19.70;99.90
20803;DHT22;10562;-33.856;151.182;2023-07-31T06:58:19;19.50;99.90
20803;DHT22;10562;-33.856;151.182;2023-07-31T07:00:52;19.50;99.90
20803;DHT22;10562;-33.856;151.182;2023-07-31T07:03:22;19.40;99.90
20803;DHT22;10562;-33.856;151.182;2023-07-31T07:05:53;19.40;99.90
20803;DHT22;10562;-33.856;151.182;2023-07-31T07:08:24;19.30;99.90
20803;DHT22;10562;-33.856;151.182;2023-07-31T07:10:55;19.10;99.90
20803;DHT22;10562;-33.856;151.182;2023-07-31T07:13:26;19.00;99.90
20803;DHT22;10562;-33.856;151.182;2023-07-31T07:15:58;18.80;99.90
20803;DHT22;10562;-33.856;151.182;2023-07-31T07:18:29;18.70;99.90
20803;DHT22;10562;-33.856;151.182;2023-07-31T07:21:00;18.60;99.90
20803;DHT22;10562;-33.856;151.182;2023-07-31T07:23:31;18.50;99.90
20803;DHT22;10562;-33.856;151.182;2023-07-31T07:26:01;18.30;99.90
20803;DHT22;10562;-33.856;151.182;2023-07-31T07:28:32;18.30;99.90
20803;DHT22;10562;-33.856;151.182;2023-07-31T07:31:06;18.20;99.90
20803;DHT22;10562;-33.856;151.182;2023-07-31T07:33:37;18.10;99.90
20803;DHT22;10562;-33.856;151.182;2023-07-31T07:36:08;18.00;99.90
20803;DHT22;10562;-33.856;151.182;2023-07-31T07:38:40;17.90;99.90
20803;DHT22;10562;-33.856;151.182;2023-07-31T07:41:11;17.80;99.90
20803;DHT22;10562;-33.856;151.182;2023-07-31T07:43:42;17.70;99.90
20803;DHT22;10562;-33.856;151.182;2023-07-31T07:46:14;17.60;99.90
20803;DHT22;10562;-33.856;151.182;2023-07-31T07:48:45;17.50;99.90
20803;DHT22;10562;-33.856;151.182;2023-07-31T07:51:16;17.50;99.90
20803;DHT22;10562;-33.856;151.182;2023-07-31T07:53:47;17.40;99.90
20803;DHT22;10562;-33.856;151.182;2023-07-31T07:56:18;17.30;99.90
20803;DHT22;10562;-33.856;151.182;2023-07-31T07:58:50;17.20;99.90
20803;DHT22;10562;-33.856;151.182;2023-07-31T08:01:23;17.10;99.90
20803;DHT22;10562;-33.856;151.182;2023-07-31T08:03:54;17.10;99.90
20803;DHT22;10562;-33.856;151.182;2023-07-31T08:06:25;17.20;99.90
20803;DHT22;10562;-33.856;151.182;2023-07-31T08:08:55;17.20;99.90
20803;DHT22;10562;-33.856;151.182;2023-07-31T08:11:26;17.40;99.90
20803;DHT22;10562;-33.856;151.182;2023-07-31T08:13:57;17.40;99.90
20803;DHT22;10562;-33.856;151.182;2023-07-31T08:16:29;17.40;99.90
20803;DHT22;10562;-33.856;151.182;2023-07-31T08:19:00;17.40;99.90
20803;DHT22;10562;-33.856;151.182;2023-07-31T08:21:31;17.40;99.90
20803;DHT22;10562;-33.856;151.182;2023-07-31T08:24:02;17.30;99.90
20803;DHT22;10562;-33.856;151.182;2023-07-31T08:26:33;17.20;99.90
20803;DHT22;10562;-33.856;151.182;2023-07-31T08:29:04;17.20;99.90
20803;DHT22;10562;-33.856;151.182;2023-07-31T08:31:36;17.00;99.90
20803;DHT22;10562;-33.856;151.182;2023-07-31T08:34:07;16.90;99.90
20803;DHT22;10562;-33.856;151.182;2023-07-31T08:36:38;16.70;99.90
20803;DHT22;10562;-33.856;151.182;2023-07-31T08:39:09;16.70;99.90
20803;DHT22;10562;-33.856;151.182;2023-07-31T08:41:40;16.60;99.90
20803;DHT22;10562;-33.856;151.182;2023-07-31T08:44:11;16.40;99.90
20803;DHT22;10562;-33.856;151.182;2023-07-31T08:46:45;16.40;99.90
20803;DHT22;10562;-33.856;151.182;2023-07-31T08:49:18;16.30;99.90
20803;DHT22;10562;-33.856;151.182;2023-07-31T08:51:51;16.20;99.90
20803;DHT22;10562;-33.856;151.182;2023-07-31T08:54:23;16.20;99.90
20803;DHT22;10562;-33.856;151.182;2023-07-31T08:56:57;16.10;99.90
20803;DHT22;10562;-33.856;151.182;2023-07-31T08:59:30;16.10;99.90
20803;DHT22;10562;-33.856;151.182;2023-07-31T09:02:07;16.10;99.90
20803;DHT22;10562;-33.856;151.182;2023-07-31T09:04:38;16.10;99.90
20803;DHT22;10562;-33.856;151.182;2023-07-31T09:07:10;16.20;99.90
20803;DHT22;10562;-33.856;151.182;2023-07-31T09:09:41;16.20;99.90
20803;DHT22;10562;-33.856;151.182;2023-07-31T09:12:12;16.20;99.90
20803;DHT22;10562;-33.856;151.182;2023-07-31T09:14:44;16.30;99.90
20803;DHT22;10562;-33.856;151.182;2023-07-31T09:17:29;16.30;99.90
20803;DHT22;10562;-33.856;151.182;2023-07-31T09:20:14;16.30;99.90
20803;DHT22;10562;-33.856;151.182;2023-07-31T09:22:46;16.30;99.90
20803;DHT22;10562;-33.856;151.182;2023-07-31T09:25:17;16.20;99.90
20803;DHT22;10562;-33.856;151.182;2023-07-31T09:27:50;16.10;99.90
20803;DHT22;10562;-33.856;151.182;2023-07-31T09:30:21;16.00;99.90
20803;DHT22;10562;-33.856;151.182;2023-07-31T09:33:02;15.90;99.90
20803;DHT22;10562;-33.856;151.182;2023-07-31T09:35:34;15.70;99.90
20803;DHT22;10562;-33.856;151.182;2023-07-31T09:38:07;15.70;99.90
20803;DHT22;10562;-33.856;151.182;2023-07-31T09:40:40;15.50;99.90
20803;DHT22;10562;-33.856;151.182;2023-07-31T09:43:11;15.40;99.90
20803;DHT22;10562;-33.856;151.182;2023-07-31T09:45:43;15.30;99.90
20803;DHT22;10562;-33.856;151.182;2023-07-31T09:48:17;15.20;99.90
20803;DHT22;10562;-33.856;151.182;2023-07-31T09:50:48;15.20;99.90
20803;DHT22;10562;-33.856;151.182;2023-07-31T09:53:19;15.10;99.90
20803;DHT22;10562;-33.856;151.182;2023-07-31T09:56:00;15.00;99.90
20803;DHT22;10562;-33.856;151.182;2023-07-31T09:58:34;14.90;99.90
20803;DHT22;10562;-33.856;151.182;2023-07-31T10:01:05;14.80;99.90
20803;DHT22;10562;-33.856;151.182;2023-07-31T10:03:40;14.80;99.90
20803;DHT22;10562;-33.856;151.182;2023-07-31T10:06:11;14.90;99.90
20803;DHT22;10562;-33.856;151.182;2023-07-31T10:08:45;15.00;99.90
20803;DHT22;10562;-33.856;151.182;2023-07-31T10:11:17;15.00;99.90
20803;DHT22;10562;-33.856;151.182;2023-07-31T10:13:48;14.90;99.90
20803;DHT22;10562;-33.856;151.182;2023-07-31T10:16:20;14.90;99.90
20803;DHT22;10562;-33.856;151.182;2023-07-31T10:18:53;14.80;99.90
20803;DHT22;10562;-33.856;151.182;2023-07-31T10:21:24;14.80;99.90
20803;DHT22;10562;-33.856;151.182;2023-07-31T10:23:56;14.70;99.90
20803;DHT22;10562;-33.856;151.182;2023-07-31T10:26:27;14.70;99.90
20803;DHT22;10562;-33.856;151.182;2023-07-31T10:28:59;14.60;99.90
20803;DHT22;10562;-33.856;151.182;2023-07-31T10:31:30;14.50;99.90
20803;DHT22;10562;-33.856;151.182;2023-07-31T10:34:03;14.50;99.90
20803;DHT22;10562;-33.856;151.182;2023-07-31T10:36:34;14.40;99.90
20803;DHT22;10562;-33.856;151.182;2023-07-31T10:39:05;14.40;99.90
20803;DHT22;10562;-33.856;151.182;2023-07-31T10:41:56;14.30;99.90
20803;DHT22;10562;-33.856;151.182;2023-07-31T10:44:28;14.20;99.90
20803;DHT22;10562;-33.856;151.182;2023-07-31T10:47:01;14.20;99.90
20803;DHT22;10562;-33.856;151.182;2023-07-31T10:49:35;14.20;99.90
20803;DHT22;10562;-33.856;151.182;2023-07-31T10:52:13;14.10;99.90
20803;DHT22;10562;-33.856;151.182;2023-07-31T10:54:43;14.10;99.90
20803;DHT22;10562;-33.856;151.182;2023-07-31T10:57:23;14.20;99.90
20803;DHT22;10562;-33.856;151.182;2023-07-31T11:00:23;14.30;99.90
20803;DHT22;10562;-33.856;151.182;2023-07-31T11:03:02;14.20;99.90
20803;DHT22;10562;-33.856;151.182;2023-07-31T11:05:59;14.10;99.90
20803;DHT22;10562;-33.856;151.182;2023-07-31T11:08:32;14.10;99.90
20803;DHT22;10562;-33.856;151.182;2023-07-31T11:11:10;14.00;99.90
20803;DHT22;10562;-33.856;151.182;2023-07-31T11:13:44;14.00;99.90
20803;DHT22;10562;-33.856;151.182;2023-07-31T11:16:17;14.00;99.90
20803;DHT22;10562;-33.856;151.182;2023-07-31T11:18:48;13.90;99.90
20803;DHT22;10562;-33.856;151.182;2023-07-31T11:21:23;13.80;99.90
20803;DHT22;10562;-33.856;151.182;2023-07-31T11:23:56;13.80;99.90
20803;DHT22;10562;-33.856;151.182;2023-07-31T11:26:27;13.80;99.90
20803;DHT22;10562;-33.856;151.182;2023-07-31T11:28:58;13.70;99.90
20803;DHT22;10562;-33.856;151.182;2023-07-31T11:31:29;13.80;99.90
20803;DHT22;10562;-33.856;151.182;2023-07-31T11:34:08;13.80;99.90
20803;DHT22;10562;-33.856;151.182;2023-07-31T11:36:40;13.90;99.90
20803;DHT22;10562;-33.856;151.182;2023-07-31T11:39:11;13.90;99.90
20803;DHT22;10562;-33.856;151.182;2023-07-31T11:41:42;13.90;99.90
20803;DHT22;10562;-33.856;151.182;2023-07-31T11:44:13;13.90;99.90
20803;DHT22;10562;-33.856;151.182;2023-07-31T11:46:44;13.90;99.90
20803;DHT22;10562;-33.856;151.182;2023-07-31T11:49:16;13.80;99.90
20803;DHT22;10562;-33.856;151.182;2023-07-31T11:51:49;13.80;99.90
20803;DHT22;10562;-33.856;151.182;2023-07-31T11:54:19;13.80;99.90
20803;DHT22;10562;-33.856;151.182;2023-07-31T11:56:50;13.80;99.90
20803;DHT22;10562;-33.856;151.182;2023-07-31T11:59:21;13.80;99.90
20803;DHT22;10562;-33.856;151.182;2023-07-31T12:01:52;13.90;99.90
20803;DHT22;10562;-33.856;151.182;2023-07-31T12:04:24;14.00;99.90
20803;DHT22;10562;-33.856;151.182;2023-07-31T12:06:59;13.90;99.90
20803;DHT22;10562;-33.856;151.182;2023-07-31T12:09:30;13.90;99.90
20803;DHT22;10562;-33.856;151.182;2023-07-31T12:12:09;13.80;99.90
20803;DHT22;10562;-33.856;151.182;2023-07-31T12:14:43;13.80;99.90
20803;DHT22;10562;-33.856;151.182;2023-07-31T12:17:13;13.70;99.90
20803;DHT22;10562;-33.856;151.182;2023-07-31T12:19:44;13.70;99.90
20803;DHT22;10562;-33.856;151.182;2023-07-31T12:22:17;13.70;99.90
20803;DHT22;10562;-33.856;151.182;2023-07-31T12:24:48;13.60;99.90
20803;DHT22;10562;-33.856;151.182;2023-07-31T12:27:19;13.50;99.90
20803;DHT22;10562;-33.856;151.182;2023-07-31T12:29:52;13.40;99.90
20803;DHT22;10562;-33.856;151.182;2023-07-31T12:32:24;13.30;99.90
20803;DHT22;10562;-33.856;151.182;2023-07-31T12:34:59;13.30;99.90
20803;DHT22;10562;-33.856;151.182;2023-07-31T12:37:34;13.20;99.90
20803;DHT22;10562;-33.856;151.182;2023-07-31T12:40:05;13.20;99.90
20803;DHT22;10562;-33.856;151.182;2023-07-31T12:42:36;13.10;99.90
20803;DHT22;10562;-33.856;151.182;2023-07-31T12:45:07;13.00;99.90
20803;DHT22;10562;-33.856;151.182;2023-07-31T12:47:38;12.90;99.90
20803;DHT22;10562;-33.856;151.182;2023-07-31T12:50:09;12.90;99.90
20803;DHT22;10562;-33.856;151.182;2023-07-31T12:52:43;12.80;99.90
20803;DHT22;10562;-33.856;151.182;2023-07-31T12:55:13;12.70;99.90
20803;DHT22;10562;-33.856;151.182;2023-07-31T12:57:46;12.60;99.90
20803;DHT22;10562;-33.856;151.182;2023-07-31T13:00:16;12.60;99.90
20803;DHT22;10562;-33.856;151.182;2023-07-31T13:02:48;12.60;99.90
20803;DHT22;10562;-33.856;151.182;2023-07-31T13:05:19;12.60;99.90
20803;DHT22;10562;-33.856;151.182;2023-07-31T13:07:52;12.60;99.90
20803;DHT22;10562;-33.856;151.182;2023-07-31T13:10:24;12.60;99.90
20803;DHT22;10562;-33.856;151.182;2023-07-31T13:12:55;12.60;99.90
20803;DHT22;10562;-33.856;151.182;2023-07-31T13:15:26;12.60;99.90
20803;DHT22;10562;-33.856;151.182;2023-07-31T13:17:56;12.60;99.90
20803;DHT22;10562;-33.856;151.182;2023-07-31T13:20:27;12.70;99.90
20803;DHT22;10562;-33.856;151.182;2023-07-31T13:23:00;12.80;99.90
20803;DHT22;10562;-33.856;151.182;2023-07-31T13:25:31;12.80;99.90
20803;DHT22;10562;-33.856;151.182;2023-07-31T13:28:01;12.80;99.90
20803;DHT22;10562;-33.856;151.182;2023-07-31T13:30:32;12.90;99.90
20803;DHT22;10562;-33.856;151.182;2023-07-31T13:33:03;12.80;99.90
20803;DHT22;10562;-33.856;151.182;2023-07-31T13:35:34;12.90;99.90
20803;DHT22;10562;-33.856;151.182;2023-07-31T13:38:07;12.80;99.90
20803;DHT22;10562;-33.856;151.182;2023-07-31T13:40:37;12.90;99.90
20803;DHT22;10562;-33.856;151.182;2023-07-31T13:43:08;12.90;99.90
20803;DHT22;10562;-33.856;151.182;2023-07-31T13:45:39;12.90;99.90
20803;DHT22;10562;-33.856;151.182;2023-07-31T13:48:10;12.90;99.90
20803;DHT22;10562;-33.856;151.182;2023-07-31T13:50:40;12.90;99.90
20803;DHT22;10562;-33.856;151.182;2023-07-31T13:53:13;12.90;99.90
20803;DHT22;10562;-33.856;151.182;2023-07-31T13:55:44;12.90;99.90
20803;DHT22;10562;-33.856;151.182;2023-07-31T13:58:17;12.90;99.90
20803;DHT22;10562;-33.856;151.182;2023-07-31T14:00:48;13.00;99.90
20803;DHT22;10562;-33.856;151.182;2023-07-31T14:03:18;13.00;99.90
20803;DHT22;10562;-33.856;151.182;2023-07-31T14:05:49;13.00;99.90
20803;DHT22;10562;-33.856;151.182;2023-07-31T14:08:22;13.00;99.90
20803;DHT22;10562;-33.856;151.182;2023-07-31T14:10:53;13.00;99.90
20803;DHT22;10562;-33.856;151.182;2023-07-31T14:13:24;13.00;99.90
20803;DHT22;10562;-33.856;151.182;2023-07-31T14:15:54;13.00;99.90
20803;DHT22;10562;-33.856;151.182;2023-07-31T14:18:25;13.00;99.90
20803;DHT22;10562;-33.856;151.182;2023-07-31T14:20:56;13.00;99.90
20803;DHT22;10562;-33.856;151.182;2023-07-31T14:23:28;13.00;99.90
20803;DHT22;10562;-33.856;151.182;2023-07-31T14:25:59;12.90;99.90
20803;DHT22;10562;-33.856;151.182;2023-07-31T14:28:30;12.90;99.90
20803;DHT22;10562;-33.856;151.182;2023-07-31T14:31:01;12.90;99.90
20803;DHT22;10562;-33.856;151.182;2023-07-31T14:33:32;12.80;99.90
20803;DHT22;10562;-33.856;151.182;2023-07-31T14:36:03;12.90;99.90
20803;DHT22;10562;-33.856;151.182;2023-07-31T14:38:35;12.80;99.90
20803;DHT22;10562;-33.856;151.182;2023-07-31T14:41:06;12.80;99.90
20803;DHT22;10562;-33.856;151.182;2023-07-31T14:43:37;12.80;99.90
20803;DHT22;10562;-33.856;151.182;2023-07-31T14:46:08;12.70;99.90
20803;DHT22;10562;-33.856;151.182;2023-07-31T14:48:39;12.60;99.90
20803;DHT22;10562;-33.856;151.182;2023-07-31T14:51:09;12.60;99.90
20803;DHT22;10562;-33.856;151.182;2023-07-31T14:53:44;12.50;99.90
20803;DHT22;10562;-33.856;151.182;2023-07-31T14:56:15;12.40;99.90
20803;DHT22;10562;-33.856;151.182;2023-07-31T14:58:45;12.30;99.90
20803;DHT22;10562;-33.856;151.182;2023-07-31T15:01:16;12.20;99.90
20803;DHT22;10562;-33.856;151.182;2023-07-31T15:03:47;12.20;99.90
20803;DHT22;10562;-33.856;151.182;2023-07-31T15:06:18;12.20;99.90
20803;DHT22;10562;-33.856;151.182;2023-07-31T15:08:50;12.20;99.90
20803;DHT22;10562;-33.856;151.182;2023-07-31T15:11:21;12.20;99.90
20803;DHT22;10562;-33.856;151.182;2023-07-31T15:13:52;12.10;99.90
20803;DHT22;10562;-33.856;151.182;2023-07-31T15:16:22;12.10;99.90